createdAt,value
2023-08-22T00:00:22.027Z,13.68
2023-08-22T00:02:50.532Z,14.48
2023-08-22T00:05:18.915Z,14.23
2023-08-22T00:07:49.367Z,13.13
2023-08-22T00:10:17.892Z,13.23
2023-08-22T00:12:48.901Z,12.70
2023-08-22T00:15:17.403Z,12.77
2023-08-22T00:17:45.971Z,12.80
2023-08-22T00:20:14.905Z,13.73
2023-08-22T00:22:45.370Z,15.02
2023-08-22T00:25:14.078Z,15.20
2023-08-22T00:27:43.100Z,13.77
2023-08-22T00:30:13.212Z,14.52
2023-08-22T00:32:41.892Z,13.55
2023-08-22T00:35:13.138Z,14.10
2023-08-22T00:37:44.227Z,13.70
2023-08-22T00:40:12.646Z,13.18
2023-08-22T00:42:40.812Z,12.55
2023-08-22T00:45:10.146Z,15.93
2023-08-22T00:47:40.241Z,15.38
2023-08-22T00:50:09.336Z,12.75
2023-08-22T00:52:39.709Z,13.55
2023-08-22T00:55:09.192Z,13.73
2023-08-22T00:57:38.547Z,14.95
2023-08-22T01:00:11.297Z,12.77
2023-08-22T01:02:41.851Z,12.93
2023-08-22T01:05:11.478Z,12.70
2023-08-22T01:07:47.871Z,14.48
2023-08-22T01:10:21.256Z,13.73
2023-08-22T01:12:57.823Z,12.70
2023-08-22T01:15:28.402Z,13.80
2023-08-22T01:17:59.805Z,12.50
2023-08-22T01:20:28.867Z,14.65
2023-08-22T01:22:59.654Z,12.75
2023-08-22T01:25:28.834Z,13.20
2023-08-22T01:28:06.493Z,13.25
2023-08-22T01:30:46.950Z,13.18
2023-08-22T01:33:22.049Z,12.25
2023-08-22T01:35:56.285Z,13.90
2023-08-22T01:38:29.767Z,12.52
2023-08-22T01:40:59.655Z,16.08
2023-08-22T01:43:28.451Z,15.13
2023-08-22T01:45:56.920Z,12.95
2023-08-22T01:48:25.439Z,12.57
2023-08-22T01:50:53.595Z,15.10
2023-08-22T01:53:21.756Z,13.38
2023-08-22T01:55:51.594Z,13.45
2023-08-22T01:58:19.894Z,13.73
2023-08-22T02:00:51.460Z,14.93
2023-08-22T02:03:21.076Z,13.93
2023-08-22T02:05:49.304Z,12.35
2023-08-22T02:08:20.193Z,13.27
2023-08-22T02:10:52.948Z,12.50
2023-08-22T02:13:21.192Z,14.50
2023-08-22T02:15:49.341Z,13.40
2023-08-22T02:18:18.048Z,12.45
2023-08-22T02:20:46.968Z,12.32
2023-08-22T02:23:17.549Z,18.40
2023-08-22T02:25:45.662Z,16.50
2023-08-22T02:28:15.343Z,14.65
2023-08-22T02:30:43.819Z,12.48
2023-08-22T02:33:12.394Z,14.13
2023-08-22T02:35:40.829Z,12.77
2023-08-22T02:38:09.285Z,15.85
2023-08-22T02:40:39.009Z,12.98
2023-08-22T02:43:08.234Z,12.55
2023-08-22T02:45:40.078Z,12.90
2023-08-22T02:48:08.848Z,13.03
2023-08-22T02:50:37.902Z,11.20
2023-08-22T02:53:06.287Z,14.52
2023-08-22T02:55:34.462Z,13.15
2023-08-22T02:58:04.501Z,13.38
2023-08-22T03:00:35.450Z,14.88
2023-08-22T03:03:06.622Z,12.25
2023-08-22T03:05:35.895Z,12.52
2023-08-22T03:08:04.989Z,12.25
2023-08-22T03:10:33.200Z,15.55
2023-08-22T03:13:02.885Z,13.27
2023-08-22T03:15:30.996Z,14.13
2023-08-22T03:17:59.273Z,12.93
2023-08-22T03:20:34.658Z,13.50
2023-08-22T03:23:06.014Z,13.00
2023-08-22T03:25:34.301Z,13.60
2023-08-22T03:28:02.584Z,13.23
2023-08-22T03:30:30.728Z,13.90
2023-08-22T03:32:58.901Z,13.52
2023-08-22T03:35:27.424Z,16.55
2023-08-22T03:37:58.094Z,13.77
2023-08-22T03:40:26.246Z,12.50
2023-08-22T03:42:55.390Z,11.73
2023-08-22T03:45:23.638Z,15.80
2023-08-22T03:47:52.039Z,14.68
2023-08-22T03:50:20.325Z,13.75
2023-08-22T03:52:48.449Z,12.95
2023-08-22T03:55:19.411Z,13.95
2023-08-22T03:57:49.588Z,14.57
2023-08-22T04:00:17.936Z,14.95
2023-08-22T04:02:46.129Z,15.82
2023-08-22T04:05:15.695Z,12.57
2023-08-22T04:07:44.078Z,12.93
2023-08-22T04:10:12.312Z,12.07
2023-08-22T04:12:47.957Z,14.13
2023-08-22T04:15:17.030Z,14.55
2023-08-22T04:17:45.755Z,19.52
2023-08-22T04:20:18.072Z,17.13
2023-08-22T04:22:47.392Z,15.20
2023-08-22T04:25:17.709Z,17.02
2023-08-22T04:27:50.274Z,14.98
2023-08-22T04:30:23.727Z,17.27
2023-08-22T04:32:51.868Z,15.93
2023-08-22T04:35:20.490Z,16.23
2023-08-22T04:37:48.756Z,13.82
2023-08-22T04:40:17.258Z,16.80
2023-08-22T04:42:45.643Z,14.02
2023-08-22T04:45:15.137Z,13.30
2023-08-22T04:47:43.897Z,15.45
2023-08-22T04:50:12.468Z,16.40
2023-08-22T04:52:40.584Z,13.60
2023-08-22T04:55:09.443Z,14.70
2023-08-22T04:57:38.783Z,12.57
2023-08-22T05:00:15.557Z,13.02
2023-08-22T05:02:48.936Z,13.95
2023-08-22T05:05:17.278Z,13.48
2023-08-22T05:07:45.906Z,15.30
2023-08-22T05:10:14.219Z,15.02
2023-08-22T05:12:45.222Z,16.40
2023-08-22T05:15:18.328Z,13.07
2023-08-22T05:17:46.883Z,13.35
2023-08-22T05:20:15.362Z,11.82
2023-08-22T05:22:43.564Z,15.70
2023-08-22T05:25:11.788Z,11.63
2023-08-22T05:27:40.381Z,14.98
2023-08-22T05:30:10.705Z,11.07
2023-08-22T05:32:42.819Z,12.70
2023-08-22T05:35:11.224Z,14.40
2023-08-22T05:37:39.986Z,15.45
2023-08-22T05:40:10.064Z,13.65
2023-08-22T05:42:39.889Z,14.13
2023-08-22T05:45:09.759Z,12.45
2023-08-22T05:47:38.187Z,12.82
2023-08-22T05:50:09.951Z,15.40
2023-08-22T05:52:38.112Z,12.70
2023-08-22T05:55:07.452Z,14.52
2023-08-22T05:57:35.909Z,14.07
2023-08-22T06:00:05.172Z,13.00
2023-08-22T06:02:33.464Z,12.18
2023-08-22T06:05:01.734Z,11.73
2023-08-22T06:07:31.354Z,11.65
2023-08-22T06:09:59.861Z,12.60
2023-08-22T06:12:28.315Z,10.93
2023-08-22T06:14:56.594Z,12.70
2023-08-22T06:17:27.550Z,13.52
2023-08-22T06:19:55.796Z,11.50
2023-08-22T06:22:26.705Z,11.93
2023-08-22T06:24:56.301Z,10.43
2023-08-22T06:27:24.606Z,10.88
2023-08-22T06:29:52.719Z,13.18
2023-08-22T06:32:23.891Z,11.52
2023-08-22T06:34:52.033Z,12.07
2023-08-22T06:37:22.929Z,13.00
2023-08-22T06:39:51.111Z,13.73
2023-08-22T06:42:23.028Z,11.95
2023-08-22T06:44:51.142Z,12.70
2023-08-22T06:47:19.300Z,12.13
2023-08-22T06:49:47.571Z,12.27
2023-08-22T06:52:15.780Z,10.57
2023-08-22T06:54:43.873Z,11.75
2023-08-22T06:57:12.038Z,12.25
2023-08-22T06:59:41.536Z,12.05
2023-08-22T07:02:12.161Z,13.50
2023-08-22T07:04:43.754Z,10.23
2023-08-22T07:07:12.168Z,11.57
2023-08-22T07:09:40.386Z,12.32
2023-08-22T07:12:09.947Z,11.05
2023-08-22T07:14:43.739Z,11.50
2023-08-22T07:17:13.453Z,9.80
2023-08-22T07:19:42.487Z,12.40
2023-08-22T07:22:10.862Z,10.93
2023-08-22T07:24:39.220Z,10.43
2023-08-22T07:27:07.451Z,11.45
2023-08-22T07:29:35.618Z,11.02
2023-08-22T07:32:04.635Z,11.88
2023-08-22T07:34:34.388Z,11.13
2023-08-22T07:37:02.553Z,11.98
2023-08-22T07:39:30.631Z,12.05
2023-08-22T07:41:58.741Z,11.75
2023-08-22T07:44:26.842Z,12.05
2023-08-22T07:46:55.163Z,10.88
2023-08-22T07:49:26.347Z,11.32
2023-08-22T07:51:56.126Z,13.55
2023-08-22T07:54:28.640Z,12.82
2023-08-22T07:57:08.311Z,12.98
2023-08-22T07:59:40.807Z,10.43
2023-08-22T08:02:09.614Z,10.77
2023-08-22T08:04:37.789Z,12.88
2023-08-22T08:07:10.421Z,12.07
2023-08-22T08:09:38.578Z,15.82
2023-08-22T08:12:07.196Z,11.27
2023-08-22T08:14:35.482Z,12.95
2023-08-22T08:17:04.094Z,12.65
2023-08-22T08:19:32.137Z,12.98
2023-08-22T08:22:01.281Z,13.55
2023-08-22T08:24:30.782Z,12.30
2023-08-22T08:26:58.957Z,12.80
2023-08-22T08:29:27.691Z,12.23
2023-08-22T08:31:58.103Z,12.25
2023-08-22T08:34:27.140Z,12.73
2023-08-22T08:36:55.532Z,10.90
2023-08-22T08:39:26.231Z,12.75
2023-08-22T08:42:04.696Z,10.93
2023-08-22T08:44:36.158Z,11.38
2023-08-22T08:47:09.004Z,12.35
2023-08-22T08:49:38.449Z,11.50
2023-08-22T08:52:10.565Z,12.48
2023-08-22T08:54:38.694Z,12.05
2023-08-22T08:57:08.410Z,10.55
2023-08-22T08:59:43.849Z,11.40
2023-08-22T09:02:17.509Z,11.60
2023-08-22T09:04:45.890Z,11.52
2023-08-22T09:07:16.947Z,12.15
2023-08-22T09:09:45.409Z,11.20
2023-08-22T09:12:15.958Z,10.90
2023-08-22T09:14:48.513Z,10.55
2023-08-22T09:17:17.497Z,10.35
2023-08-22T09:19:46.905Z,10.60
2023-08-22T09:22:16.143Z,12.70
2023-08-22T09:24:52.872Z,10.52
2023-08-22T09:27:24.631Z,11.02
2023-08-22T09:29:52.801Z,10.77
2023-08-22T09:32:22.548Z,10.57
2023-08-22T09:34:59.906Z,10.32
2023-08-22T09:37:34.457Z,11.50
2023-08-22T09:40:05.019Z,11.27
2023-08-22T09:42:39.390Z,11.82
2023-08-22T09:45:08.537Z,11.40
2023-08-22T09:47:42.538Z,12.27
2023-08-22T09:50:15.360Z,11.32
2023-08-22T09:52:43.596Z,10.45
2023-08-22T09:55:15.871Z,13.00
2023-08-22T09:57:46.820Z,11.52
2023-08-22T10:00:16.287Z,11.48
2023-08-22T10:02:45.461Z,11.38
2023-08-22T10:05:16.197Z,10.55
2023-08-22T10:07:44.554Z,10.50
2023-08-22T10:10:13.548Z,12.13
2023-08-22T10:12:42.140Z,11.02
2023-08-22T10:15:16.626Z,11.00
2023-08-22T10:17:46.868Z,11.80
2023-08-22T10:20:17.614Z,12.02
2023-08-22T10:22:45.760Z,11.27
2023-08-22T10:25:13.896Z,10.85
2023-08-22T10:27:48.837Z,11.27
2023-08-22T10:30:24.558Z,11.80
2023-08-22T10:33:16.968Z,12.43
2023-08-22T10:36:04.157Z,12.13
2023-08-22T10:38:53.692Z,11.55
2023-08-22T10:41:25.931Z,12.13
2023-08-22T10:43:58.545Z,11.75
2023-08-22T10:47:02.355Z,12.30
2023-08-22T10:49:31.891Z,11.77
2023-08-22T10:52:06.612Z,13.18
2023-08-22T10:54:57.460Z,12.73
2023-08-22T10:57:28.346Z,12.13
2023-08-22T11:00:08.771Z,12.60
2023-08-22T11:02:41.570Z,12.20
2023-08-22T11:05:13.031Z,12.55
2023-08-22T11:07:43.129Z,13.00
2023-08-22T11:10:16.982Z,12.68
2023-08-22T11:12:47.130Z,13.10
2023-08-22T11:15:17.156Z,14.02
2023-08-22T11:17:51.530Z,13.75
2023-08-22T11:20:22.731Z,12.00
2023-08-22T11:22:51.520Z,12.82
2023-08-22T11:25:26.824Z,14.50
2023-08-22T11:27:55.719Z,12.38
2023-08-22T11:30:24.148Z,12.48
2023-08-22T11:32:53.738Z,12.30
2023-08-22T11:35:22.113Z,12.23
2023-08-22T11:37:50.443Z,12.07
2023-08-22T11:40:18.839Z,14.55
2023-08-22T11:42:48.376Z,11.48
2023-08-22T11:45:18.746Z,13.52
2023-08-22T11:47:51.637Z,12.65
2023-08-22T11:50:24.954Z,11.65
2023-08-22T11:52:56.194Z,13.15
2023-08-22T11:55:26.991Z,11.70
2023-08-22T11:57:57.015Z,11.85
2023-08-22T12:00:27.831Z,13.95
2023-08-22T12:03:00.469Z,11.00
2023-08-22T12:05:35.807Z,12.10
2023-08-22T12:08:18.551Z,10.98
2023-08-22T12:13:17.271Z,11.98
2023-08-22T12:15:45.943Z,11.30
2023-08-22T12:18:14.503Z,11.07
2023-08-22T12:20:45.448Z,11.45
2023-08-22T12:23:14.736Z,13.13
2023-08-22T12:25:44.314Z,11.45
2023-08-22T12:28:12.994Z,11.90
2023-08-22T12:30:42.283Z,12.82
2023-08-22T12:33:11.471Z,10.80
2023-08-22T12:35:41.153Z,11.40
2023-08-22T12:38:10.968Z,11.15
2023-08-22T12:40:40.272Z,11.07
2023-08-22T12:43:08.421Z,11.02
2023-08-22T12:45:37.454Z,11.48
2023-08-22T12:48:07.093Z,11.45
2023-08-22T12:50:35.396Z,12.00
2023-08-22T12:53:05.241Z,12.45
2023-08-22T12:55:34.950Z,11.30
2023-08-22T12:58:03.563Z,12.80
2023-08-22T13:00:31.705Z,11.45
2023-08-22T13:03:01.084Z,12.15
2023-08-22T13:05:32.523Z,11.32
2023-08-22T13:08:00.677Z,12.60
2023-08-22T13:10:28.752Z,11.48
2023-08-22T13:12:58.294Z,10.93
2023-08-22T13:15:26.403Z,11.18
2023-08-22T13:17:58.455Z,12.38
2023-08-22T13:20:26.816Z,12.03
2023-08-22T13:22:56.133Z,10.77
2023-08-22T13:25:24.284Z,11.45
2023-08-22T13:27:52.671Z,11.73
2023-08-22T13:30:25.459Z,13.48
2023-08-22T13:32:53.576Z,11.20
2023-08-22T13:35:21.923Z,11.68
2023-08-22T13:37:54.255Z,11.48
2023-08-22T13:40:23.009Z,10.98
2023-08-22T13:42:51.141Z,12.98
2023-08-22T13:45:19.510Z,12.35
2023-08-22T13:47:49.264Z,10.55
2023-08-22T13:50:17.501Z,11.73
2023-08-22T13:52:45.603Z,11.95
2023-08-22T13:55:13.764Z,10.85
2023-08-22T13:57:43.799Z,11.07
2023-08-22T14:00:13.471Z,10.52
2023-08-22T14:02:41.808Z,9.60
2023-08-22T14:05:11.824Z,10.23
2023-08-22T14:07:40.516Z,10.48
2023-08-22T14:10:10.631Z,10.85
2023-08-22T14:12:38.748Z,10.93
2023-08-22T14:15:07.790Z,11.45
2023-08-22T14:17:38.981Z,10.95
2023-08-22T14:20:08.281Z,10.40
2023-08-22T14:22:37.937Z,12.77
2023-08-22T14:25:07.089Z,10.10
2023-08-22T14:27:36.668Z,12.25
2023-08-22T14:30:05.360Z,10.32
2023-08-22T14:32:34.198Z,10.38
2023-08-22T14:35:02.640Z,10.65
2023-08-22T14:37:30.774Z,9.95
2023-08-22T14:40:00.413Z,9.93
2023-08-22T14:42:29.577Z,10.93
2023-08-22T14:44:57.669Z,11.05
2023-08-22T14:47:27.991Z,10.32
2023-08-22T14:49:56.118Z,12.40
2023-08-22T14:52:24.259Z,10.38
2023-08-22T14:54:52.521Z,9.95
2023-08-22T14:57:22.163Z,9.73
2023-08-22T14:59:50.285Z,10.05
2023-08-22T15:02:18.423Z,10.63
2023-08-22T15:04:46.859Z,11.20
2023-08-22T15:07:15.049Z,12.00
2023-08-22T15:09:43.150Z,9.55
2023-08-22T15:12:11.445Z,8.60
2023-08-22T15:14:43.637Z,8.68
2023-08-22T15:17:15.531Z,9.73
2023-08-22T15:19:46.490Z,10.03
2023-08-22T15:22:14.791Z,9.68
2023-08-22T15:24:42.949Z,9.68
2023-08-22T15:27:12.343Z,9.73
2023-08-22T15:29:42.182Z,9.65
2023-08-22T15:32:10.780Z,9.55
2023-08-22T15:34:41.386Z,11.35
2023-08-22T15:37:09.613Z,9.45
2023-08-22T15:39:37.674Z,9.10
2023-08-22T15:42:05.754Z,10.13
2023-08-22T15:44:33.893Z,9.00
2023-08-22T15:47:05.036Z,9.50
2023-08-22T15:49:38.763Z,11.60
2023-08-22T15:52:07.606Z,8.85
2023-08-22T15:54:36.029Z,8.40
2023-08-22T15:57:04.510Z,10.68
2023-08-22T15:59:35.680Z,9.50
2023-08-22T16:02:05.612Z,9.50
2023-08-22T16:04:35.565Z,9.25
2023-08-22T16:07:03.761Z,10.48
2023-08-22T16:09:32.184Z,11.02
2023-08-22T16:12:00.590Z,10.43
2023-08-22T16:14:28.735Z,9.75
2023-08-22T16:16:57.163Z,8.05
2023-08-22T16:19:29.577Z,9.63
2023-08-22T16:24:28.349Z,8.43
2023-08-22T16:26:56.592Z,10.15
2023-08-22T16:29:27.619Z,8.73
2023-08-22T16:31:56.086Z,9.43
2023-08-22T16:34:24.394Z,9.82
2023-08-22T16:36:53.990Z,8.55
2023-08-22T16:39:22.259Z,9.52
2023-08-22T16:41:51.651Z,9.07
2023-08-22T16:44:19.786Z,7.75
2023-08-22T16:46:47.921Z,9.10
2023-08-22T16:49:16.338Z,8.07
2023-08-22T16:51:44.487Z,8.45
2023-08-22T16:54:15.092Z,7.45
2023-08-22T16:56:43.200Z,7.25
2023-08-22T16:59:11.499Z,7.78
2023-08-22T17:01:39.574Z,8.15
2023-08-22T17:04:07.685Z,7.20
2023-08-22T17:06:36.831Z,7.38
2023-08-22T17:09:06.849Z,8.13
2023-08-22T17:11:36.825Z,8.80
2023-08-22T17:14:07.890Z,9.63
2023-08-22T17:16:36.234Z,12.90
2023-08-22T17:19:04.995Z,10.30
2023-08-22T17:21:36.500Z,11.05
2023-08-22T17:24:07.471Z,9.93
2023-08-22T17:26:37.142Z,9.77
2023-08-22T17:29:05.264Z,10.93
2023-08-22T17:31:33.789Z,18.00
2023-08-22T17:34:02.308Z,17.92
2023-08-22T17:36:30.506Z,18.67
2023-08-22T17:38:58.687Z,18.85
2023-08-22T17:41:32.077Z,20.27
2023-08-22T17:44:01.609Z,20.73
2023-08-22T17:46:29.834Z,18.30
2023-08-22T17:48:58.248Z,18.20
2023-08-22T17:51:26.517Z,17.35
2023-08-22T17:53:54.777Z,18.58
2023-08-22T17:56:22.933Z,19.13
2023-08-22T17:58:52.321Z,17.42
2023-08-22T18:01:21.890Z,19.05
2023-08-22T18:03:50.327Z,17.42
2023-08-22T18:06:19.633Z,17.35
2023-08-22T18:08:48.187Z,16.45
2023-08-22T18:11:16.420Z,16.20
2023-08-22T18:13:45.461Z,20.48
2023-08-22T18:16:15.506Z,17.38
2023-08-22T18:18:46.874Z,19.40
2023-08-22T18:21:15.487Z,17.10
2023-08-22T18:23:44.753Z,16.15
2023-08-22T18:26:13.689Z,15.20
2023-08-22T18:28:42.173Z,13.80
2023-08-22T18:31:14.787Z,13.30
2023-08-22T18:33:45.543Z,16.08
2023-08-22T18:36:22.214Z,13.38
2023-08-22T18:38:50.281Z,12.70
2023-08-22T18:41:19.395Z,10.90
2023-08-22T18:43:48.579Z,12.27
2023-08-22T18:46:17.225Z,14.60
2023-08-22T18:48:51.046Z,11.82
2023-08-22T18:51:20.551Z,11.98
2023-08-22T18:53:51.495Z,13.95
2023-08-22T18:56:19.846Z,13.40
2023-08-22T18:58:48.054Z,14.10
2023-08-22T19:01:17.849Z,10.65
2023-08-22T19:03:46.494Z,12.45
2023-08-22T19:06:17.236Z,12.05
2023-08-22T19:08:46.898Z,14.30
2023-08-22T19:11:15.137Z,11.90
2023-08-22T19:13:43.388Z,11.88
2023-08-22T19:16:11.650Z,12.55
2023-08-22T19:18:39.857Z,13.65
2023-08-22T19:21:08.252Z,10.43
2023-08-22T19:23:36.530Z,12.88
2023-08-22T19:26:06.855Z,12.70
2023-08-22T19:28:38.010Z,10.15
2023-08-22T19:31:06.262Z,10.07
2023-08-22T19:33:34.860Z,12.57
2023-08-22T19:36:03.038Z,13.38
2023-08-22T19:38:31.243Z,12.25
2023-08-22T19:40:59.745Z,12.65
2023-08-22T19:43:29.331Z,11.57
2023-08-22T19:45:59.549Z,10.18
2023-08-22T19:48:27.804Z,10.90
2023-08-22T19:51:02.623Z,13.93
2023-08-22T19:53:31.032Z,14.68
2023-08-22T19:55:59.386Z,13.57
2023-08-22T19:58:28.960Z,12.40
2023-08-22T20:00:57.701Z,13.57
2023-08-22T20:03:28.397Z,13.77
2023-08-22T20:06:00.289Z,13.80
2023-08-22T20:08:31.267Z,13.43
2023-08-22T20:10:59.800Z,12.90
2023-08-22T20:13:29.505Z,12.23
2023-08-22T20:15:57.568Z,14.68
2023-08-22T20:18:25.791Z,14.15
2023-08-22T20:20:57.429Z,12.18
2023-08-22T20:23:25.868Z,13.88
2023-08-22T20:25:55.104Z,14.13
2023-08-22T20:28:23.326Z,13.35
2023-08-22T20:30:56.833Z,13.55
2023-08-22T20:33:25.430Z,12.18
2023-08-22T20:35:54.359Z,12.35
2023-08-22T20:38:22.780Z,11.60
2023-08-22T20:40:51.384Z,12.82
2023-08-22T20:43:19.538Z,11.38
2023-08-22T20:45:47.645Z,11.60
2023-08-22T20:48:23.691Z,12.13
2023-08-22T20:50:54.695Z,13.60
2023-08-22T20:53:23.387Z,11.95
2023-08-22T20:55:53.589Z,11.40
2023-08-22T20:58:21.883Z,9.45
2023-08-22T21:00:50.411Z,11.05
2023-08-22T21:03:25.056Z,12.02
2023-08-22T21:05:56.110Z,10.73
2023-08-22T21:08:24.589Z,12.05
2023-08-22T21:10:52.765Z,11.95
2023-08-22T21:13:21.302Z,13.13
2023-08-22T21:15:49.725Z,11.30
2023-08-22T21:18:23.519Z,11.35
2023-08-22T21:20:55.437Z,12.38
2023-08-22T21:23:23.891Z,10.27
2023-08-22T21:25:52.164Z,11.57
2023-08-22T21:28:20.700Z,9.73
2023-08-22T21:30:51.837Z,10.32
2023-08-22T21:33:20.768Z,12.53
2023-08-22T21:35:51.975Z,11.85
2023-08-22T21:38:21.829Z,10.00
2023-08-22T21:40:53.109Z,11.85
2023-08-22T21:43:24.276Z,12.90
2023-08-22T21:45:52.539Z,11.57
2023-08-22T21:48:20.824Z,12.13
2023-08-22T21:50:49.047Z,11.48
2023-08-22T21:53:17.318Z,9.98
2023-08-22T21:55:47.000Z,11.20
2023-08-22T21:58:18.110Z,9.25
2023-08-22T22:00:46.238Z,13.48
2023-08-22T22:03:18.426Z,10.23
2023-08-22T22:05:49.699Z,10.48
2023-08-22T22:08:19.212Z,12.30
2023-08-22T22:10:52.774Z,11.60
2023-08-22T22:13:21.260Z,11.80
2023-08-22T22:15:49.446Z,10.63
2023-08-22T22:18:20.943Z,10.43
2023-08-22T22:20:55.844Z,11.13
2023-08-22T22:23:27.240Z,11.88
2023-08-22T22:26:03.612Z,11.23
2023-08-22T22:28:32.703Z,12.38
2023-08-22T22:31:00.858Z,9.27
2023-08-22T22:33:29.023Z,12.00
2023-08-22T22:35:57.474Z,11.40
2023-08-22T22:38:25.628Z,10.95
2023-08-22T22:40:54.495Z,10.70
2023-08-22T22:43:24.078Z,10.02
2023-08-22T22:45:52.267Z,10.75
2023-08-22T22:48:20.435Z,11.80
2023-08-22T22:50:48.690Z,10.65
2023-08-22T22:53:19.548Z,12.45
2023-08-22T22:55:48.245Z,11.75
2023-08-22T22:58:16.548Z,10.80
2023-08-22T23:00:49.962Z,10.73
2023-08-22T23:03:18.883Z,11.38
2023-08-22T23:05:47.177Z,11.27
2023-08-22T23:08:18.476Z,11.05
2023-08-22T23:10:46.692Z,10.32
2023-08-22T23:13:15.182Z,9.93
2023-08-22T23:15:43.431Z,11.32
2023-08-22T23:18:12.990Z,10.35
2023-08-22T23:20:44.060Z,11.48
2023-08-22T23:23:14.832Z,10.52
2023-08-22T23:25:43.145Z,10.70
2023-08-22T23:28:11.510Z,11.65
2023-08-22T23:30:39.694Z,10.38
2023-08-22T23:33:08.166Z,10.23
2023-08-22T23:35:40.441Z,12.95
2023-08-22T23:38:09.460Z,10.32
2023-08-22T23:40:40.063Z,12.80
2023-08-22T23:43:08.474Z,11.60
2023-08-22T23:45:36.698Z,10.43
2023-08-22T23:48:05.013Z,11.90
2023-08-22T23:50:34.815Z,10.15
2023-08-22T23:53:04.917Z,11.73
2023-08-22T23:55:36.038Z,11.50
2023-08-22T23:58:04.246Z,10.10
